Zeran (malta) — 9HHJ5 — position and weather

sailwx.info

Track history (hours):
 
Tides and Currents Weather Stations Pressure Air Temp Water Temp Dewpoint Dewpoint Depression Visibility Wind Speed Wind Dir Waves Ship Positions

Zeran (malta)

Last reported at 2017-Jan-20 23:31 UTC. Time now 2017-Jan-21 00:09 UTC.
Position N 44°24' E 008°53'.

Length 148 m; beam 24 m.

Type: Ship (hazmat cat A). MMSI: 249846000.

Date/timePositionNaut miles runAvg speedWind from/ knotsBaromVisibWave heightAir tempDewpointWater temp
2017-Jan-20 23:31N 44°24' E 008°53'0 0.0
2017-Jan-20 22:31N 44°24' E 008°53'0 0.0
2017-Jan-20 21:31N 44°24' E 008°53'0 0.0
2017-Jan-20 20:31N 44°24' E 008°53'0 0.0
2017-Jan-20 19:31N 44°24' E 008°53'0 0.0
2017-Jan-20 18:31N 44°24' E 008°53'0 0.0
2017-Jan-20 17:31N 44°24' E 008°53'0 0.0
2017-Jan-20 16:31N 44°24' E 008°53'0 0.0
2017-Jan-20 15:31N 44°24' E 008°53'0 0.0
2017-Jan-20 14:31N 44°24' E 008°53'0 0.0
2017-Jan-20 13:31N 44°24' E 008°53'0 0.0
2017-Jan-20 12:31N 44°24' E 008°53'0 0.0
2017-Jan-20 11:31N 44°24' E 008°53'0 0.0
2017-Jan-20 10:28N 44°24' E 008°53'4 4.5
2017-Jan-20 09:33N 44°22' E 008°57'1312.9
2017-Jan-20 08:33N 44°10' E 009°04'1313.0
2017-Jan-20 07:33N 43°58' E 009°11'1313.3
2017-Jan-20 06:33N 43°46' E 009°17'1312.9
2017-Jan-20 05:33N 43°34' E 009°22'1313.2
2017-Jan-20 04:33N 43°21' E 009°28'1413.6
2017-Jan-20 03:33N 43°08' E 009°35'  
2017-Jan-15 16:06N 43°10' E 009°31'611.6
2017-Jan-15 15:33N 43°16' E 009°28'1211.9
2017-Jan-15 14:33N 43°27' E 009°23'1211.9
2017-Jan-15 13:33N 43°39' E 009°17'1111.4
2017-Jan-15 12:33N 43°49' E 009°12'1111.4
2017-Jan-15 11:33N 43°60' E 009°06'1111.4
2017-Jan-15 10:33N 44°11' E 009°01'1211.7
2017-Jan-15 09:33N 44°22' E 008°55'3 2.8
2017-Jan-15 08:22N 44°24' E 008°53'0 0.0
2017-Jan-15 07:22N 44°24' E 008°53'0 0.0
2017-Jan-15 06:25N 44°24' E 008°53'0 0.0
2017-Jan-15 05:31N 44°24' E 008°53'0 0.0
2017-Jan-15 04:28N 44°24' E 008°53'0 0.0
2017-Jan-15 03:28N 44°24' E 008°53'0 0.0
2017-Jan-15 02:31N 44°24' E 008°53'0 0.0
2017-Jan-15 01:31N 44°24' E 008°53'0 0.0
2017-Jan-15 00:31N 44°24' E 008°53'0 0.0
2017-Jan-14 23:31N 44°24' E 008°53'0 0.0
2017-Jan-14 22:31N 44°24' E 008°53'0 0.0
2017-Jan-14 21:31N 44°24' E 008°53'0 0.0
2017-Jan-14 20:31N 44°24' E 008°53'0 0.0
2017-Jan-14 19:31N 44°24' E 008°53'0 0.0
2017-Jan-14 18:22N 44°24' E 008°53'0 0.0
2017-Jan-14 17:19N 44°24' E 008°53'0 0.0
2017-Jan-14 16:31N 44°24' E 008°53'2 2.5
2017-Jan-14 15:34N 44°23' E 008°55'1111.5
2017-Jan-14 14:34N 44°14' E 009°04'1212.4
2017-Jan-14 13:34N 44°03' E 009°14'1312.8
2017-Jan-14 12:34N 43°52' E 009°23'1312.8
2017-Jan-14 11:34N 43°41' E 009°32'1312.5
2017-Jan-14 10:33N 43°30' E 009°40'1212.2
2017-Jan-14 09:34N 43°19' E 009°47'1211.7
2017-Jan-14 08:33N 43°09' E 009°54'1211.5
2017-Jan-14 07:33N 42°58' E 009°59'  
Track history (hours):
 
Tides and Currents Weather Stations Pressure Air Temp Water Temp Dewpoint Dewpoint Depression Visibility Wind Speed Wind Dir Waves Ship Positions

Zeran (malta)

Last reported at 2017-Jan-20 23:31 UTC. Time now 2017-Jan-21 00:09 UTC.
Position N 44°24' E 008°53'.

Length 148 m; beam 24 m.

Type: Ship (hazmat cat A). MMSI: 249846000.

Date/timePositionNaut miles runAvg speedWind from/ knotsBaromVisibWave heightAir tempDewpointWater temp
2017-Jan-20 23:31N 44°24' E 008°53'0 0.0
2017-Jan-20 22:31N 44°24' E 008°53'0 0.0
2017-Jan-20 21:31N 44°24' E 008°53'0 0.0
2017-Jan-20 20:31N 44°24' E 008°53'0 0.0
2017-Jan-20 19:31N 44°24' E 008°53'0 0.0
2017-Jan-20 18:31N 44°24' E 008°53'0 0.0
2017-Jan-20 17:31N 44°24' E 008°53'0 0.0
2017-Jan-20 16:31N 44°24' E 008°53'0 0.0
2017-Jan-20 15:31N 44°24' E 008°53'0 0.0
2017-Jan-20 14:31N 44°24' E 008°53'0 0.0
2017-Jan-20 13:31N 44°24' E 008°53'0 0.0
2017-Jan-20 12:31N 44°24' E 008°53'0 0.0
2017-Jan-20 11:31N 44°24' E 008°53'0 0.0
2017-Jan-20 10:28N 44°24' E 008°53'4 4.5
2017-Jan-20 09:33N 44°22' E 008°57'1312.9
2017-Jan-20 08:33N 44°10' E 009°04'1313.0
2017-Jan-20 07:33N 43°58' E 009°11'1313.3
2017-Jan-20 06:33N 43°46' E 009°17'1312.9
2017-Jan-20 05:33N 43°34' E 009°22'1313.2
2017-Jan-20 04:33N 43°21' E 009°28'1413.6
2017-Jan-20 03:33N 43°08' E 009°35'  
2017-Jan-15 16:06N 43°10' E 009°31'611.6
2017-Jan-15 15:33N 43°16' E 009°28'1211.9
2017-Jan-15 14:33N 43°27' E 009°23'1211.9
2017-Jan-15 13:33N 43°39' E 009°17'1111.4
2017-Jan-15 12:33N 43°49' E 009°12'1111.4
2017-Jan-15 11:33N 43°60' E 009°06'1111.4
2017-Jan-15 10:33N 44°11' E 009°01'1211.7
2017-Jan-15 09:33N 44°22' E 008°55'3 2.8
2017-Jan-15 08:22N 44°24' E 008°53'0 0.0
2017-Jan-15 07:22N 44°24' E 008°53'0 0.0
2017-Jan-15 06:25N 44°24' E 008°53'0 0.0
2017-Jan-15 05:31N 44°24' E 008°53'0 0.0
2017-Jan-15 04:28N 44°24' E 008°53'0 0.0
2017-Jan-15 03:28N 44°24' E 008°53'0 0.0
2017-Jan-15 02:31N 44°24' E 008°53'0 0.0
2017-Jan-15 01:31N 44°24' E 008°53'0 0.0
2017-Jan-15 00:31N 44°24' E 008°53'0 0.0
2017-Jan-14 23:31N 44°24' E 008°53'0 0.0
2017-Jan-14 22:31N 44°24' E 008°53'0 0.0
2017-Jan-14 21:31N 44°24' E 008°53'0 0.0
2017-Jan-14 20:31N 44°24' E 008°53'0 0.0
2017-Jan-14 19:31N 44°24' E 008°53'0 0.0
2017-Jan-14 18:22N 44°24' E 008°53'0 0.0
2017-Jan-14 17:19N 44°24' E 008°53'0 0.0
2017-Jan-14 16:31N 44°24' E 008°53'2 2.5
2017-Jan-14 15:34N 44°23' E 008°55'1111.5
2017-Jan-14 14:34N 44°14' E 009°04'1212.4
2017-Jan-14 13:34N 44°03' E 009°14'1312.8
2017-Jan-14 12:34N 43°52' E 009°23'1312.8
2017-Jan-14 11:34N 43°41' E 009°32'1312.5
2017-Jan-14 10:33N 43°30' E 009°40'1212.2
2017-Jan-14 09:34N 43°19' E 009°47'1211.7
2017-Jan-14 08:33N 43°09' E 009°54'1211.5
2017-Jan-14 07:33N 42°58' E 009°59'  

Dump ship's entire track history